createdAt,value
2022-10-24T00:02:47.589Z,12.37
2022-10-24T00:05:50.606Z,12.39
2022-10-24T00:08:53.492Z,12.39
2022-10-24T00:11:56.395Z,12.40
2022-10-24T00:14:59.261Z,12.41
2022-10-24T00:18:02.150Z,12.42
2022-10-24T00:21:06.059Z,12.42
2022-10-24T00:24:09.377Z,12.41
2022-10-24T00:27:12.299Z,12.41
2022-10-24T00:30:15.182Z,12.39
2022-10-24T00:33:18.409Z,12.39
2022-10-24T00:36:23.036Z,12.38
2022-10-24T00:39:25.848Z,12.38
2022-10-24T00:42:28.964Z,12.37
2022-10-24T00:45:44.257Z,12.38
2022-10-24T00:48:50.190Z,12.38
2022-10-24T00:52:02.599Z,12.39
2022-10-24T00:55:06.096Z,12.39
2022-10-24T00:58:09.639Z,12.38
2022-10-24T01:01:12.943Z,12.38
2022-10-24T01:04:15.916Z,12.39
2022-10-24T01:07:47.404Z,12.39
2022-10-24T01:11:08.484Z,12.41
2022-10-24T01:14:50.018Z,12.42
2022-10-24T01:18:02.051Z,12.44
2022-10-24T01:21:05.133Z,12.45
2022-10-24T01:24:38.474Z,12.47
2022-10-24T01:28:12.770Z,12.47
2022-10-24T01:31:25.965Z,12.48
2022-10-24T01:34:36.942Z,12.47
2022-10-24T01:37:44.135Z,12.47
2022-10-24T01:41:02.671Z,12.48
2022-10-24T01:44:17.771Z,12.49
2022-10-24T01:47:27.051Z,12.49
2022-10-24T01:50:33.191Z,12.48
2022-10-24T01:53:38.137Z,12.47
2022-10-24T01:56:41.161Z,12.49
2022-10-24T01:59:48.457Z,12.49
2022-10-24T02:02:53.875Z,12.50
2022-10-24T02:06:02.153Z,12.50
2022-10-24T02:09:13.853Z,12.52
2022-10-24T02:12:18.343Z,12.52
2022-10-24T02:15:28.042Z,12.55
2022-10-24T02:18:33.140Z,12.57
2022-10-24T02:21:43.871Z,12.61
2022-10-24T02:25:16.127Z,12.64
2022-10-24T02:28:24.151Z,12.68
2022-10-24T02:31:33.953Z,12.71
2022-10-24T02:34:41.518Z,12.75
2022-10-24T02:37:49.589Z,12.78
2022-10-24T02:40:53.963Z,12.82
2022-10-24T02:43:58.453Z,12.85
2022-10-24T02:47:05.005Z,12.88
2022-10-24T02:50:08.982Z,12.91
2022-10-24T02:53:16.687Z,12.94
2022-10-24T02:56:19.878Z,12.97
2022-10-24T02:59:23.358Z,12.99
2022-10-24T03:02:26.283Z,13.01
2022-10-24T03:05:29.108Z,13.03
2022-10-24T03:08:31.987Z,13.04
2022-10-24T03:11:35.151Z,13.05
2022-10-24T03:14:38.106Z,13.07
2022-10-24T03:17:40.968Z,13.08
2022-10-24T03:20:43.840Z,13.10
2022-10-24T03:23:46.737Z,13.11
2022-10-24T03:26:52.254Z,13.14
2022-10-24T03:29:55.325Z,13.15
2022-10-24T03:32:58.182Z,13.17
2022-10-24T03:36:01.680Z,13.19
2022-10-24T03:39:06.778Z,13.21
2022-10-24T03:42:09.675Z,13.23
2022-10-24T03:45:12.573Z,13.24
2022-10-24T03:48:16.431Z,13.25
2022-10-24T03:51:19.331Z,13.26
2022-10-24T03:54:22.188Z,13.27
2022-10-24T03:57:25.070Z,13.29
2022-10-24T04:00:29.135Z,13.29
2022-10-24T04:03:32.039Z,13.29
2022-10-24T04:06:36.525Z,13.31
2022-10-24T04:09:39.819Z,13.33
2022-10-24T04:12:42.803Z,13.34
2022-10-24T04:15:45.612Z,13.36
2022-10-24T04:18:48.432Z,13.37
2022-10-24T04:21:51.373Z,13.38
2022-10-24T04:24:54.254Z,13.40
2022-10-24T04:27:57.176Z,13.41
2022-10-24T04:31:00.458Z,13.43
2022-10-24T04:34:05.282Z,13.44
2022-10-24T04:37:08.186Z,13.44
2022-10-24T04:40:11.329Z,13.45
2022-10-24T04:43:14.279Z,13.46
2022-10-24T04:46:17.094Z,13.45
2022-10-24T04:49:20.041Z,13.45
2022-10-24T04:52:23.038Z,13.44
2022-10-24T04:55:25.906Z,13.44
2022-10-24T04:58:28.938Z,13.44
2022-10-24T05:01:31.905Z,13.44
2022-10-24T05:04:34.831Z,13.45
2022-10-24T05:07:37.762Z,13.45
2022-10-24T05:10:40.961Z,13.44
2022-10-24T05:13:43.903Z,13.45
2022-10-24T05:16:48.548Z,13.46
2022-10-24T05:19:51.435Z,13.46
2022-10-24T05:22:54.612Z,13.47
2022-10-24T05:25:57.474Z,13.48
2022-10-24T05:29:00.408Z,13.47
2022-10-24T05:32:03.532Z,13.49
2022-10-24T05:35:07.726Z,13.50
2022-10-24T05:38:10.804Z,13.51
2022-10-24T05:41:13.624Z,13.52
2022-10-24T05:44:17.637Z,13.53
2022-10-24T05:47:23.551Z,13.54
2022-10-24T05:50:30.125Z,13.56
2022-10-24T05:53:33.052Z,13.57
2022-10-24T05:56:35.901Z,13.60
2022-10-24T05:59:38.785Z,13.62
2022-10-24T06:02:42.533Z,13.62
2022-10-24T06:05:54.068Z,13.64
2022-10-24T06:08:56.993Z,13.67
2022-10-24T06:11:59.800Z,13.69
2022-10-24T06:15:05.433Z,13.70
2022-10-24T06:18:08.562Z,13.73
2022-10-24T06:21:13.527Z,13.75
2022-10-24T06:24:16.793Z,13.78
2022-10-24T06:27:19.900Z,13.80
2022-10-24T06:30:22.756Z,13.83
2022-10-24T06:33:25.657Z,13.87
2022-10-24T06:36:31.420Z,13.89
2022-10-24T06:39:42.057Z,13.92
2022-10-24T06:42:45.884Z,13.94
2022-10-24T06:45:48.888Z,13.95
2022-10-24T06:48:55.706Z,13.98
2022-10-24T06:51:58.680Z,13.99
2022-10-24T06:55:01.580Z,14.01
2022-10-24T06:58:06.847Z,14.02
2022-10-24T07:01:18.243Z,14.04
2022-10-24T07:04:35.129Z,14.06
2022-10-24T07:07:38.357Z,14.07
2022-10-24T07:10:41.369Z,14.09
2022-10-24T07:13:44.466Z,14.10
2022-10-24T07:16:47.463Z,14.12
2022-10-24T07:19:55.448Z,14.16
2022-10-24T07:22:58.509Z,14.22
2022-10-24T07:26:11.477Z,14.26
2022-10-24T07:29:14.543Z,14.29
2022-10-24T07:32:18.708Z,14.32
2022-10-24T07:35:21.844Z,14.35
2022-10-24T07:38:25.025Z,14.40
2022-10-24T07:41:30.715Z,14.42
2022-10-24T07:44:33.915Z,14.45
2022-10-24T07:47:37.426Z,14.46
2022-10-24T07:50:44.091Z,14.47
2022-10-24T07:53:47.259Z,14.46
2022-10-24T07:56:50.249Z,14.46
2022-10-24T07:59:53.275Z,14.46
2022-10-24T08:02:56.623Z,14.47
2022-10-24T08:05:59.987Z,14.46
2022-10-24T08:09:06.537Z,14.47
2022-10-24T08:12:11.700Z,14.47
2022-10-24T08:15:14.668Z,14.47
2022-10-24T08:18:17.632Z,14.48
2022-10-24T08:21:22.021Z,14.47
2022-10-24T08:24:25.118Z,14.47
2022-10-24T08:27:28.112Z,14.47
2022-10-24T08:30:35.441Z,14.48
2022-10-24T08:33:39.796Z,14.48
2022-10-24T08:36:43.405Z,14.49
2022-10-24T08:39:46.376Z,14.49
2022-10-24T08:43:00.020Z,14.50
2022-10-24T08:46:32.748Z,14.51
2022-10-24T08:49:46.421Z,14.52
2022-10-24T08:53:25.543Z,14.55
2022-10-24T08:56:32.519Z,14.61
2022-10-24T08:59:36.562Z,14.67
2022-10-24T09:02:52.208Z,14.74
2022-10-24T09:06:12.277Z,14.83
2022-10-24T09:09:20.937Z,14.89
2022-10-24T09:12:24.357Z,14.96
2022-10-24T09:15:30.388Z,15.02
2022-10-24T09:18:37.616Z,15.06
2022-10-24T09:21:42.650Z,15.10
2022-10-24T09:24:57.054Z,15.15
2022-10-24T09:28:04.028Z,15.19
2022-10-24T09:31:19.137Z,15.23
2022-10-24T09:34:22.297Z,15.26
2022-10-24T09:37:46.113Z,15.32
2022-10-24T09:40:52.693Z,15.37
2022-10-24T09:44:00.665Z,15.42
2022-10-24T09:47:09.373Z,15.48
2022-10-24T09:50:23.195Z,15.53
2022-10-24T09:53:39.422Z,15.57
2022-10-24T09:56:42.775Z,15.61
2022-10-24T09:59:48.798Z,15.64
2022-10-24T10:03:23.424Z,15.66
2022-10-24T10:06:27.838Z,15.69
2022-10-24T10:09:32.176Z,15.71
2022-10-24T10:12:39.127Z,15.75
2022-10-24T10:15:50.442Z,15.81
2022-10-24T10:19:08.132Z,15.86
2022-10-24T10:22:25.643Z,15.92
2022-10-24T10:25:32.385Z,16.00
2022-10-24T10:28:42.085Z,16.10
2022-10-24T10:31:49.096Z,16.19
2022-10-24T10:35:13.379Z,16.29
2022-10-24T10:38:50.592Z,16.38
2022-10-24T10:42:03.415Z,16.45
2022-10-24T10:45:33.282Z,16.51
2022-10-24T10:48:55.631Z,16.55
2022-10-24T10:52:06.497Z,16.58
2022-10-24T10:55:24.692Z,16.60
2022-10-24T10:58:42.077Z,16.61
2022-10-24T11:01:51.466Z,16.64
2022-10-24T11:05:08.483Z,16.67
2022-10-24T11:08:20.734Z,16.70
2022-10-24T11:11:39.895Z,16.77
2022-10-24T11:14:48.501Z,16.84
2022-10-24T11:17:57.200Z,16.89
2022-10-24T11:21:11.987Z,16.92
2022-10-24T11:24:20.712Z,16.94
2022-10-24T11:27:29.992Z,16.96
2022-10-24T11:30:48.031Z,16.99
2022-10-24T11:34:12.256Z,17.01
2022-10-24T11:37:21.098Z,17.05
2022-10-24T11:43:41.093Z,17.11
2022-10-24T11:46:53.130Z,17.15
2022-10-24T11:50:10.392Z,17.19
2022-10-24T11:53:18.424Z,17.22
2022-10-24T11:56:58.793Z,17.27
2022-10-24T12:00:02.400Z,17.31
2022-10-24T12:03:44.244Z,17.34
2022-10-24T12:07:02.450Z,17.37
2022-10-24T12:10:08.126Z,17.42
2022-10-24T12:13:20.003Z,17.43
2022-10-24T12:16:49.229Z,17.42
2022-10-24T12:19:52.940Z,17.40
2022-10-24T12:22:56.703Z,17.38
2022-10-24T12:26:04.412Z,17.34
2022-10-24T12:29:21.491Z,17.33
2022-10-24T12:32:37.351Z,17.32
2022-10-24T12:35:47.249Z,17.31
2022-10-24T12:38:56.773Z,17.31
2022-10-24T12:41:59.890Z,17.31
2022-10-24T12:45:05.969Z,17.31
2022-10-24T12:48:32.757Z,17.31
2022-10-24T12:51:40.727Z,17.28
2022-10-24T12:54:45.497Z,17.27
2022-10-24T12:57:48.583Z,17.25
2022-10-24T13:01:26.066Z,17.24
2022-10-24T13:04:46.042Z,17.24
2022-10-24T13:08:13.770Z,17.22
2022-10-24T13:18:56.602Z,17.20
2022-10-24T13:22:01.961Z,17.18
2022-10-24T13:25:37.282Z,17.16
2022-10-24T13:28:40.853Z,17.15
2022-10-24T13:31:47.383Z,17.13
2022-10-24T13:34:54.373Z,17.12
2022-10-24T13:38:01.311Z,17.11
2022-10-24T13:41:05.985Z,17.10
2022-10-24T13:44:11.718Z,17.07
2022-10-24T13:47:22.664Z,17.04
2022-10-24T13:50:32.030Z,17.00
2022-10-24T13:53:46.193Z,16.96
2022-10-24T13:56:49.319Z,16.91
2022-10-24T14:00:01.535Z,16.87
2022-10-24T14:03:20.106Z,16.83
2022-10-24T14:06:29.167Z,16.81
2022-10-24T14:09:41.607Z,16.77
2022-10-24T14:12:45.794Z,16.73
2022-10-24T14:15:51.764Z,16.71
2022-10-24T14:19:36.164Z,16.69
2022-10-24T14:22:41.392Z,16.67
2022-10-24T14:25:44.296Z,16.64
2022-10-24T14:28:59.940Z,16.62
2022-10-24T14:32:07.963Z,16.58
2022-10-24T14:35:13.247Z,16.55
2022-10-24T14:38:20.184Z,16.51
2022-10-24T14:41:29.842Z,16.48
2022-10-24T14:44:37.381Z,16.44
2022-10-24T14:47:51.192Z,16.40
2022-10-24T14:50:54.388Z,16.36
2022-10-24T14:53:58.500Z,16.32
2022-10-24T14:57:07.400Z,16.29
2022-10-24T15:00:21.177Z,16.27
2022-10-24T15:03:27.090Z,16.24
2022-10-24T15:06:41.785Z,16.20
2022-10-24T15:09:52.137Z,16.18
2022-10-24T15:12:57.655Z,16.16
2022-10-24T15:16:01.615Z,16.14
2022-10-24T15:19:07.167Z,16.12
2022-10-24T15:22:32.779Z,16.10
2022-10-24T15:25:42.052Z,16.06
2022-10-24T15:29:02.709Z,16.02
2022-10-24T15:32:09.548Z,16.00
2022-10-24T15:35:13.782Z,15.97
2022-10-24T15:38:18.807Z,15.95
2022-10-24T15:41:21.715Z,15.92
2022-10-24T15:44:29.396Z,15.90
2022-10-24T15:47:32.241Z,15.89
2022-10-24T15:50:35.996Z,15.87
2022-10-24T15:53:39.040Z,15.86
2022-10-24T15:56:42.448Z,15.84
2022-10-24T15:59:45.438Z,15.82
2022-10-24T16:02:55.140Z,15.82
2022-10-24T16:05:59.545Z,15.80
2022-10-24T16:09:03.009Z,15.80
2022-10-24T16:12:06.295Z,15.79
2022-10-24T16:15:23.763Z,15.79
2022-10-24T16:18:27.060Z,15.77
2022-10-24T16:21:29.959Z,15.77
2022-10-24T16:24:33.111Z,15.76
2022-10-24T16:27:36.197Z,15.75
2022-10-24T16:30:40.777Z,15.74
2022-10-24T16:33:45.286Z,15.74
2022-10-24T16:36:48.762Z,15.74
2022-10-24T16:39:51.744Z,15.73
2022-10-24T16:42:57.316Z,15.75
2022-10-24T16:46:02.302Z,15.75
2022-10-24T16:52:09.159Z,15.76
2022-10-24T16:55:13.548Z,15.75
2022-10-24T16:58:17.710Z,15.75
2022-10-24T17:01:23.064Z,15.74
2022-10-24T17:04:29.042Z,15.73
2022-10-24T17:07:33.287Z,15.73
2022-10-24T17:10:36.393Z,15.72
2022-10-24T17:13:39.303Z,15.70
2022-10-24T17:16:43.585Z,15.69
2022-10-24T17:19:48.414Z,15.69
2022-10-24T17:22:51.565Z,15.68
2022-10-24T17:25:55.466Z,15.68
2022-10-24T17:28:58.757Z,15.67
2022-10-24T17:32:01.979Z,15.67
2022-10-24T17:35:05.675Z,15.68
2022-10-24T17:38:08.575Z,15.68
2022-10-24T17:41:24.947Z,15.69
2022-10-24T17:44:28.217Z,15.71
2022-10-24T17:47:31.234Z,15.73
2022-10-24T17:50:34.530Z,15.77
2022-10-24T17:53:37.913Z,15.78
2022-10-24T17:56:41.827Z,15.80
2022-10-24T17:59:44.726Z,15.80
2022-10-24T18:02:49.850Z,15.79
2022-10-24T18:05:52.814Z,15.77
2022-10-24T18:08:56.402Z,15.76
2022-10-24T18:12:01.074Z,15.73
2022-10-24T18:15:09.685Z,15.72
2022-10-24T18:18:12.788Z,15.70
2022-10-24T18:24:27.310Z,15.69
2022-10-24T18:27:30.095Z,15.68
2022-10-24T18:30:33.082Z,15.68
2022-10-24T18:33:36.095Z,15.67
2022-10-24T18:36:39.000Z,15.67
2022-10-24T18:39:41.837Z,15.67
2022-10-24T18:42:55.740Z,15.66
2022-10-24T18:45:59.271Z,15.66
2022-10-24T18:49:02.361Z,15.65
2022-10-24T18:52:14.772Z,15.64
2022-10-24T18:55:21.344Z,15.63
2022-10-24T18:58:24.377Z,15.62
2022-10-24T19:01:42.424Z,15.62
2022-10-24T19:04:50.820Z,15.61
2022-10-24T19:07:53.957Z,15.61
2022-10-24T19:10:57.079Z,15.59
2022-10-24T19:14:02.424Z,15.59
2022-10-24T19:17:05.856Z,15.59
2022-10-24T19:20:24.096Z,15.60
2022-10-24T19:23:27.300Z,15.59
2022-10-24T19:26:30.278Z,15.60
2022-10-24T19:29:33.354Z,15.59
2022-10-24T19:32:36.258Z,15.60
2022-10-24T19:35:41.856Z,15.59
2022-10-24T19:38:44.746Z,15.60
2022-10-24T19:41:47.596Z,15.60
2022-10-24T19:44:54.477Z,15.60
2022-10-24T19:47:57.609Z,15.59
2022-10-24T19:51:05.771Z,15.59
2022-10-24T19:54:08.709Z,15.58
2022-10-24T19:57:12.206Z,15.56
2022-10-24T20:00:15.287Z,15.55
2022-10-24T20:03:18.155Z,15.53
2022-10-24T20:06:21.654Z,15.52
2022-10-24T20:09:25.481Z,15.51
2022-10-24T20:12:28.370Z,15.50
2022-10-24T20:15:31.277Z,15.47
2022-10-24T20:18:36.810Z,15.46
2022-10-24T20:21:39.924Z,15.46
2022-10-24T20:24:42.810Z,15.44
2022-10-24T20:27:45.904Z,15.44
2022-10-24T20:30:49.395Z,15.42
2022-10-24T20:33:52.705Z,15.42
2022-10-24T20:36:56.663Z,15.41
2022-10-24T20:39:59.649Z,15.39
2022-10-24T20:43:04.742Z,15.39
2022-10-24T20:46:07.790Z,15.40
2022-10-24T20:49:10.861Z,15.38
2022-10-24T20:52:14.055Z,15.38
2022-10-24T20:55:31.719Z,15.38
2022-10-24T20:58:41.947Z,15.38
2022-10-24T21:01:44.962Z,15.37
2022-10-24T21:04:48.355Z,15.37
2022-10-24T21:07:51.479Z,15.37
2022-10-24T21:10:55.203Z,15.36
2022-10-24T21:14:01.199Z,15.37
2022-10-24T21:17:04.236Z,15.37
2022-10-24T21:20:07.530Z,15.36
2022-10-24T21:23:10.401Z,15.35
2022-10-24T21:26:14.538Z,15.35
2022-10-24T21:29:33.991Z,15.35
2022-10-24T21:32:37.260Z,15.34
2022-10-24T21:35:40.190Z,15.34
2022-10-24T21:38:46.865Z,15.34
2022-10-24T21:41:49.952Z,15.33
2022-10-24T21:44:52.882Z,15.32
2022-10-24T21:47:55.769Z,15.32
2022-10-24T21:51:04.783Z,15.31
2022-10-24T21:54:15.889Z,15.33
2022-10-24T21:57:18.953Z,15.32
2022-10-24T22:00:21.877Z,15.32
2022-10-24T22:03:24.847Z,15.32
2022-10-24T22:06:29.694Z,15.32
2022-10-24T22:09:33.007Z,15.32
2022-10-24T22:12:35.960Z,15.31
2022-10-24T22:15:39.083Z,15.32
2022-10-24T22:18:42.235Z,15.32
2022-10-24T22:21:47.842Z,15.32
2022-10-24T22:24:50.798Z,15.32
2022-10-24T22:27:54.083Z,15.32
2022-10-24T22:30:57.261Z,15.32
2022-10-24T22:34:00.518Z,15.32
2022-10-24T22:37:22.119Z,15.30
2022-10-24T22:40:31.567Z,15.30
2022-10-24T22:43:34.761Z,15.28
2022-10-24T22:46:55.603Z,15.28
2022-10-24T22:49:58.429Z,15.26
2022-10-24T22:53:02.086Z,15.26
2022-10-24T22:56:33.185Z,15.24
2022-10-24T22:59:36.309Z,15.24
2022-10-24T23:02:45.550Z,15.23
2022-10-24T23:05:58.728Z,15.22
2022-10-24T23:09:01.748Z,15.21
2022-10-24T23:12:13.544Z,15.21
2022-10-24T23:15:18.854Z,15.21
2022-10-24T23:18:21.951Z,15.20
2022-10-24T23:21:37.044Z,15.20
2022-10-24T23:24:40.254Z,15.19
2022-10-24T23:27:44.318Z,15.19
2022-10-24T23:30:47.718Z,15.18
2022-10-24T23:33:50.861Z,15.18
2022-10-24T23:36:59.249Z,15.17
2022-10-24T23:40:22.912Z,15.15
2022-10-24T23:43:26.153Z,15.14
2022-10-24T23:46:37.172Z,15.14
2022-10-24T23:49:48.700Z,15.14
2022-10-24T23:53:11.342Z,15.12
2022-10-24T23:56:14.694Z,15.13
2022-10-24T23:59:17.565Z,15.12
